< Typhoon 198830 1988 Season Typhoon 198901 >
Typhoon 198831 (VAL)
General InformationTrack Information on Google MapsDetailed Wind InformationList of All Images || Disaster Info.ResourceGoogle EarthGE AnimationAtom FeedGeoJSON
Detalied Best Track (Time Zone = UTC)
Year Month Day Hour Lat. Long. Pressure (hPa) Wind (kt) Class Image Chart
1988 12 22 06 10.0 132.5 1002 0 2 Image Chart
1988 12 22 12 10.5 131.2 1002 0 2 Image Chart
1988 12 22 18 11.4 130.0 1002 0 2 Image Chart
1988 12 23 00 12.3 128.7 1000 0 2 Image Chart
1988 12 23 06 13.0 127.5 998 0 2 Image Chart
1988 12 23 12 13.6 126.4 998 0 2 Image Chart
1988 12 23 18 14.3 125.4 998 0 2 Image Chart
1988 12 24 00 15.0 124.3 996 40 3 Image Chart
1988 12 24 06 15.4 123.5 992 45 3 Image Chart
1988 12 24 12 15.6 123.1 992 45 3 Image Chart
1988 12 24 18 16.0 123.3 994 45 3 Image Chart
1988 12 25 00 15.7 124.0 996 40 3 Image Chart
1988 12 25 06 15.5 124.0 998 0 2 Image Chart
1988 12 25 12 15.5 124.0 1000 0 2 Image Chart
1988 12 25 18 15.5 124.0 1002 0 2 Image Chart
1988 12 26 00 15.0 124.0 1004 0 2 Image Chart
1988 12 26 06 15.0 124.0 1004 0 2 Image Chart
1988 12 26 12 15.0 124.0 1006 0 2 Image Chart
1988 12 26 18 15.0 124.0 1006 0 2 Image Chart
1988 12 27 00 15.0 124.0 1008 0 2 Image Chart
1988 12 27 06 14.5 123.0 1008 0 2 Image Chart
1988 12 27 12 14.0 122.0 1010 0 2 Image Chart
Japan Meteorological Agency Best Track Data | Correction Date : 1992-10-21
< Typhoon 198830 1988 Season Typhoon 198901 >

Help